sensor_id;sensor_type;location;lat;lon;timestamp;pressure;altitude;pressure_sealevel;temperature;humidity
11184;BME280;5648;43.628;22.684;2022-09-02T00:00:58;95030.03;;;19.00;100.00
11184;BME280;5648;43.628;22.684;2022-09-02T00:03:31;95031.09;;;18.99;100.00
11184;BME280;5648;43.628;22.684;2022-09-02T00:05:59;95033.28;;;19.07;100.00
11184;BME280;5648;43.628;22.684;2022-09-02T00:08:26;95026.78;;;18.93;100.00
11184;BME280;5648;43.628;22.684;2022-09-02T00:10:53;95029.94;;;18.80;100.00
11184;BME280;5648;43.628;22.684;2022-09-02T00:13:19;95031.56;;;18.81;100.00
11184;BME280;5648;43.628;22.684;2022-09-02T00:15:46;95031.88;;;18.89;100.00
11184;BME280;5648;43.628;22.684;2022-09-02T00:18:13;95027.13;;;19.02;100.00
11184;BME280;5648;43.628;22.684;2022-09-02T00:20:42;95033.28;;;19.07;100.00
11184;BME280;5648;43.628;22.684;2022-09-02T00:23:08;95025.25;;;19.02;100.00
11184;BME280;5648;43.628;22.684;2022-09-02T00:25:35;95034.91;;;19.13;100.00
11184;BME280;5648;43.628;22.684;2022-09-02T00:28:01;95041.06;;;19.14;100.00
11184;BME280;5648;43.628;22.684;2022-09-02T00:30:27;95040.78;;;19.05;100.00
11184;BME280;5648;43.628;22.684;2022-09-02T00:32:53;95040.53;;;19.07;100.00
11184;BME280;5648;43.628;22.684;2022-09-02T00:35:19;95045.88;;;19.12;100.00
11184;BME280;5648;43.628;22.684;2022-09-02T00:37:45;95043.47;;;19.05;100.00
11184;BME280;5648;43.628;22.684;2022-09-02T00:40:12;95035.97;;;19.02;100.00
11184;BME280;5648;43.628;22.684;2022-09-02T00:42:38;95040.19;;;18.88;100.00
11184;BME280;5648;43.628;22.684;2022-09-02T00:45:05;95044.97;;;18.86;100.00
11184;BME280;5648;43.628;22.684;2022-09-02T00:47:31;95048.78;;;18.95;100.00
11184;BME280;5648;43.628;22.684;2022-09-02T00:49:57;95057.34;;;18.97;100.00
11184;BME280;5648;43.628;22.684;2022-09-02T00:52:29;95055.50;;;19.03;100.00
11184;BME280;5648;43.628;22.684;2022-09-02T00:54:59;95052.53;;;18.99;100.00
11184;BME280;5648;43.628;22.684;2022-09-02T00:57:33;95057.88;;;18.94;100.00
11184;BME280;5648;43.628;22.684;2022-09-02T01:02:38;95058.47;;;19.01;100.00
11184;BME280;5648;43.628;22.684;2022-09-02T01:05:07;95064.34;;;19.03;100.00
11184;BME280;5648;43.628;22.684;2022-09-02T01:07:34;95065.69;;;19.01;100.00
11184;BME280;5648;43.628;22.684;2022-09-02T01:10:04;95059.47;;;18.95;100.00
11184;BME280;5648;43.628;22.684;2022-09-02T01:12:30;95055.22;;;18.99;100.00
11184;BME280;5648;43.628;22.684;2022-09-02T01:14:56;95046.69;;;19.07;100.00
11184;BME280;5648;43.628;22.684;2022-09-02T01:17:23;95045.03;;;18.96;100.00
11184;BME280;5648;43.628;22.684;2022-09-02T01:19:54;95039.38;;;18.87;100.00
11184;BME280;5648;43.628;22.684;2022-09-02T01:22:24;95031.09;;;18.94;100.00
11184;BME280;5648;43.628;22.684;2022-09-02T01:24:51;95025.72;;;18.89;100.00
11184;BME280;5648;43.628;22.684;2022-09-02T01:27:20;95029.75;;;18.96;100.00
11184;BME280;5648;43.628;22.684;2022-09-02T01:29:51;95030.53;;;18.92;100.00
11184;BME280;5648;43.628;22.684;2022-09-02T01:32:17;95034.28;;;18.91;100.00
11184;BME280;5648;43.628;22.684;2022-09-02T01:34:43;95038.59;;;18.97;100.00
11184;BME280;5648;43.628;22.684;2022-09-02T01:37:09;95039.72;;;19.06;100.00
11184;BME280;5648;43.628;22.684;2022-09-02T01:39:34;95039.44;;;19.08;100.00
11184;BME280;5648;43.628;22.684;2022-09-02T01:42:00;95040.53;;;19.12;100.00
11184;BME280;5648;43.628;22.684;2022-09-02T01:44:27;95035.16;;;19.07;100.00
11184;BME280;5648;43.628;22.684;2022-09-02T01:46:53;95038.38;;;19.04;100.00
11184;BME280;5648;43.628;22.684;2022-09-02T01:49:19;95024.66;;;18.95;100.00
11184;BME280;5648;43.628;22.684;2022-09-02T01:51:45;95019.34;;;19.05;100.00
11184;BME280;5648;43.628;22.684;2022-09-02T01:54:10;95026.78;;;18.93;100.00
11184;BME280;5648;43.628;22.684;2022-09-02T01:56:36;95028.41;;;18.94;100.00
11184;BME280;5648;43.628;22.684;2022-09-02T01:59:02;95029.97;;;18.85;100.00
11184;BME280;5648;43.628;22.684;2022-09-02T02:01:32;95032.91;;;18.83;100.00
11184;BME280;5648;43.628;22.684;2022-09-02T02:03:58;95036.13;;;18.85;100.00
11184;BME280;5648;43.628;22.684;2022-09-02T02:06:23;95031.81;;;18.79;100.00
11184;BME280;5648;43.628;22.684;2022-09-02T02:08:49;95049.75;;;18.74;100.00
11184;BME280;5648;43.628;22.684;2022-09-02T02:11:21;95046.03;;;18.85;100.00
11184;BME280;5648;43.628;22.684;2022-09-02T02:13:47;95041.75;;;18.84;100.00
11184;BME280;5648;43.628;22.684;2022-09-02T02:16:12;95045.22;;;18.79;100.00
11184;BME280;5648;43.628;22.684;2022-09-02T02:18:38;95041.75;;;18.84;100.00
11184;BME280;5648;43.628;22.684;2022-09-02T02:21:03;95044.59;;;18.67;100.00
11184;BME280;5648;43.628;22.684;2022-09-02T02:23:29;95047.09;;;18.79;100.00
11184;BME280;5648;43.628;22.684;2022-09-02T02:25:54;95030.22;;;18.78;100.00
11184;BME280;5648;43.628;22.684;2022-09-02T02:28:20;95035.59;;;18.83;100.00
11184;BME280;5648;43.628;22.684;2022-09-02T02:30:45;95030.53;;;18.87;100.00
11184;BME280;5648;43.628;22.684;2022-09-02T02:33:11;95022.44;;;18.77;100.00
11184;BME280;5648;43.628;22.684;2022-09-02T02:35:37;95019.00;;;18.86;100.00
11184;BME280;5648;43.628;22.684;2022-09-02T02:38:03;95021.38;;;18.83;100.00
11184;BME280;5648;43.628;22.684;2022-09-02T02:40:29;95018.16;;;18.81;100.00
11184;BME280;5648;43.628;22.684;2022-09-02T02:42:55;95020.59;;;18.82;100.00
11184;BME280;5648;43.628;22.684;2022-09-02T02:45:21;95020.28;;;18.74;100.00
11184;BME280;5648;43.628;22.684;2022-09-02T02:47:47;95022.31;;;18.61;100.00
11184;BME280;5648;43.628;22.684;2022-09-02T02:50:15;95016.38;;;18.54;100.00
11184;BME280;5648;43.628;22.684;2022-09-02T02:52:42;95013.75;;;18.59;100.00
11184;BME280;5648;43.628;22.684;2022-09-02T02:55:09;95012.44;;;18.62;100.00
11184;BME280;5648;43.628;22.684;2022-09-02T02:57:36;95016.66;;;18.58;100.00
11184;BME280;5648;43.628;22.684;2022-09-02T03:00:09;95016.66;;;18.53;100.00
11184;BME280;5648;43.628;22.684;2022-09-02T03:02:35;95013.81;;;18.64;100.00
11184;BME280;5648;43.628;22.684;2022-09-02T03:05:03;95005.56;;;18.76;100.00
11184;BME280;5648;43.628;22.684;2022-09-02T03:07:29;95013.34;;;18.78;100.00
11184;BME280;5648;43.628;22.684;2022-09-02T03:09:55;95019.75;;;18.77;100.00
11184;BME280;5648;43.628;22.684;2022-09-02T03:12:20;95024.59;;;18.80;100.00
11184;BME280;5648;43.628;22.684;2022-09-02T03:14:46;95032.63;;;18.80;100.00
11184;BME280;5648;43.628;22.684;2022-09-02T03:17:11;95014.13;;;18.73;100.00
11184;BME280;5648;43.628;22.684;2022-09-02T03:19:37;95020.31;;;18.79;100.00
11184;BME280;5648;43.628;22.684;2022-09-02T03:22:03;95021.38;;;18.83;100.00
11184;BME280;5648;43.628;22.684;2022-09-02T03:24:29;95029.72;;;18.86;100.00
11184;BME280;5648;43.628;22.684;2022-09-02T03:26:54;95028.63;;;18.82;100.00
11184;BME280;5648;43.628;22.684;2022-09-02T03:29:20;95036.31;;;18.68;100.00
11184;BME280;5648;43.628;22.684;2022-09-02T03:31:45;95031.91;;;18.57;100.00
11184;BME280;5648;43.628;22.684;2022-09-02T03:34:11;95046.13;;;18.58;100.00
11184;BME280;5648;43.628;22.684;2022-09-02T03:36:38;95047.44;;;18.55;100.00
11184;BME280;5648;43.628;22.684;2022-09-02T03:39:06;95052.50;;;18.52;100.00
11184;BME280;5648;43.628;22.684;2022-09-02T03:41:32;95046.34;;;18.46;100.00
11184;BME280;5648;43.628;22.684;2022-09-02T03:43:59;95049.00;;;18.46;100.00
11184;BME280;5648;43.628;22.684;2022-09-02T03:46:24;95049.06;;;18.56;100.00
11184;BME280;5648;43.628;22.684;2022-09-02T03:48:50;95046.88;;;18.48;100.00
11184;BME280;5648;43.628;22.684;2022-09-02T03:51:18;95047.06;;;18.36;100.00
11184;BME280;5648;43.628;22.684;2022-09-02T03:53:43;95048.69;;;18.05;100.00
11184;BME280;5648;43.628;22.684;2022-09-02T03:56:11;95051.91;;;18.02;100.00
11184;BME280;5648;43.628;22.684;2022-09-02T03:58:38;95048.84;;;17.89;100.00
11184;BME280;5648;43.628;22.684;2022-09-02T04:01:04;95050.69;;;17.88;100.00
11184;BME280;5648;43.628;22.684;2022-09-02T04:03:30;95046.19;;;17.67;100.00
11184;BME280;5648;43.628;22.684;2022-09-02T04:05:55;95049.91;;;17.66;100.00
11184;BME280;5648;43.628;22.684;2022-09-02T04:08:22;95052.75;;;17.54;100.00
11184;BME280;5648;43.628;22.684;2022-09-02T04:10:48;95052.03;;;17.64;100.00
11184;BME280;5648;43.628;22.684;2022-09-02T04:13:14;95053.28;;;17.78;100.00
11184;BME280;5648;43.628;22.684;2022-09-02T04:15:41;95055.66;;;17.74;100.00
11184;BME280;5648;43.628;22.684;2022-09-02T04:18:09;95056.06;;;17.66;100.00
11184;BME280;5648;43.628;22.684;2022-09-02T04:20:39;95051.31;;;17.68;100.00
11184;BME280;5648;43.628;22.684;2022-09-02T04:23:06;95049.44;;;17.69;100.00
11184;BME280;5648;43.628;22.684;2022-09-02T04:25:32;95057.38;;;17.64;100.00
11184;BME280;5648;43.628;22.684;2022-09-02T04:27:59;95056.41;;;17.70;100.00
11184;BME280;5648;43.628;22.684;2022-09-02T04:30:24;95056.03;;;17.61;100.00
11184;BME280;5648;43.628;22.684;2022-09-02T04:32:51;95056.81;;;17.35;100.00
11184;BME280;5648;43.628;22.684;2022-09-02T04:35:17;95059.66;;;17.28;100.00
11184;BME280;5648;43.628;22.684;2022-09-02T04:37:43;95052.72;;;17.27;100.00
11184;BME280;5648;43.628;22.684;2022-09-02T04:40:11;95048.09;;;17.44;100.00
11184;BME280;5648;43.628;22.684;2022-09-02T04:42:36;95051.94;;;17.54;100.00
11184;BME280;5648;43.628;22.684;2022-09-02T04:45:03;95068.47;;;17.50;100.00
11184;BME280;5648;43.628;22.684;2022-09-02T04:47:28;95061.94;;;17.63;100.00
11184;BME280;5648;43.628;22.684;2022-09-02T04:49:55;95064.91;;;17.67;100.00
11184;BME280;5648;43.628;22.684;2022-09-02T04:52:20;95070.63;;;17.75;100.00
11184;BME280;5648;43.628;22.684;2022-09-02T04:54:46;95076.41;;;17.67;100.00
11184;BME280;5648;43.628;22.684;2022-09-02T04:57:12;95081.16;;;17.87;100.00
11184;BME280;5648;43.628;22.684;2022-09-02T04:59:37;95084.69;;;17.93;100.00
11184;BME280;5648;43.628;22.684;2022-09-02T05:02:03;95076.44;;;17.99;100.00
11184;BME280;5648;43.628;22.684;2022-09-02T05:04:29;95080.19;;;17.98;100.00
11184;BME280;5648;43.628;22.684;2022-09-02T05:06:56;95089.91;;;18.04;100.00
11184;BME280;5648;43.628;22.684;2022-09-02T05:09:27;95081.94;;;18.15;100.00
11184;BME280;5648;43.628;22.684;2022-09-02T05:11:52;95073.41;;;18.18;100.00
11184;BME280;5648;43.628;22.684;2022-09-02T05:14:23;95078.25;;;18.21;100.00
11184;BME280;5648;43.628;22.684;2022-09-02T05:16:48;95082.97;;;18.08;100.00
11184;BME280;5648;43.628;22.684;2022-09-02T05:19:19;95074.94;;;18.08;100.00
11184;BME280;5648;43.628;22.684;2022-09-02T05:21:46;95077.66;;;18.14;100.00
11184;BME280;5648;43.628;22.684;2022-09-02T05:24:11;95076.28;;;18.11;100.00
11184;BME280;5648;43.628;22.684;2022-09-02T05:26:37;95071.81;;;18.17;100.00
11184;BME280;5648;43.628;22.684;2022-09-02T05:29:03;95071.16;;;18.04;100.00
11184;BME280;5648;43.628;22.684;2022-09-02T05:31:31;95069.72;;;18.24;100.00
11184;BME280;5648;43.628;22.684;2022-09-02T05:33:56;95071.28;;;18.20;100.00
11184;BME280;5648;43.628;22.684;2022-09-02T05:36:22;95065.41;;;18.18;100.00
11184;BME280;5648;43.628;22.684;2022-09-02T05:38:48;95072.78;;;18.05;100.00
11184;BME280;5648;43.628;22.684;2022-09-02T05:41:17;95076.69;;;18.25;100.00
11184;BME280;5648;43.628;22.684;2022-09-02T05:43:44;95070.16;;;18.16;100.00
11184;BME280;5648;43.628;22.684;2022-09-02T05:46:13;95079.44;;;18.03;100.00
11184;BME280;5648;43.628;22.684;2022-09-02T05:48:41;95071.63;;;17.96;100.00
11184;BME280;5648;43.628;22.684;2022-09-02T05:51:26;95076.03;;;18.13;100.00
11184;BME280;5648;43.628;22.684;2022-09-02T05:53:56;95077.00;;;18.01;100.00
11184;BME280;5648;43.628;22.684;2022-09-02T05:56:22;95081.25;;;17.97;100.00
11184;BME280;5648;43.628;22.684;2022-09-02T05:58:49;95072.72;;;18.00;100.00
11184;BME280;5648;43.628;22.684;2022-09-02T06:01:17;95081.88;;;18.04;100.00
11184;BME280;5648;43.628;22.684;2022-09-02T06:03:42;95080.25;;;18.03;100.00
11184;BME280;5648;43.628;22.684;2022-09-02T06:06:08;95079.13;;;17.99;100.00
11184;BME280;5648;43.628;22.684;2022-09-02T06:08:34;95086.19;;;18.10;100.00
11184;BME280;5648;43.628;22.684;2022-09-02T06:11:01;95082.94;;;18.03;100.00
11184;BME280;5648;43.628;22.684;2022-09-02T06:13:28;95073.88;;;18.09;100.00
11184;BME280;5648;43.628;22.684;2022-09-02T06:15:54;95081.91;;;18.09;100.00
11184;BME280;5648;43.628;22.684;2022-09-02T06:18:20;95086.03;;;18.22;100.00
11184;BME280;5648;43.628;22.684;2022-09-02T06:20:46;95086.38;;;18.31;100.00
11184;BME280;5648;43.628;22.684;2022-09-02T06:23:13;95088.25;;;18.30;100.00
11184;BME280;5648;43.628;22.684;2022-09-02T06:25:40;95092.56;;;18.36;100.00
11184;BME280;5648;43.628;22.684;2022-09-02T06:28:06;95092.91;;;18.45;100.00
11184;BME280;5648;43.628;22.684;2022-09-02T06:30:32;95094.44;;;18.36;100.00
11184;BME280;5648;43.628;22.684;2022-09-02T06:32:59;95091.75;;;18.36;100.00
11184;BME280;5648;43.628;22.684;2022-09-02T06:35:27;95097.44;;;18.45;100.00
11184;BME280;5648;43.628;22.684;2022-09-02T06:37:53;95096.66;;;18.49;100.00
11184;BME280;5648;43.628;22.684;2022-09-02T06:40:18;95097.25;;;18.56;100.00
11184;BME280;5648;43.628;22.684;2022-09-02T06:42:44;95100.88;;;18.40;100.00
11184;BME280;5648;43.628;22.684;2022-09-02T06:45:09;95098.44;;;18.33;100.00
11184;BME280;5648;43.628;22.684;2022-09-02T06:47:35;95096.38;;;18.46;100.00
11184;BME280;5648;43.628;22.684;2022-09-02T06:50:01;95100.94;;;18.45;100.00
11184;BME280;5648;43.628;22.684;2022-09-02T06:52:26;95110.06;;;18.49;100.00
11184;BME280;5648;43.628;22.684;2022-09-02T06:54:52;95111.22;;;18.58;100.00
11184;BME280;5648;43.628;22.684;2022-09-02T06:57:23;95108.00;;;18.61;100.00
11184;BME280;5648;43.628;22.684;2022-09-02T06:59:48;95106.13;;;18.62;100.00
11184;BME280;5648;43.628;22.684;2022-09-02T07:02:13;95113.50;;;18.77;100.00
11184;BME280;5648;43.628;22.684;2022-09-02T07:04:40;95115.66;;;18.80;100.00
11184;BME280;5648;43.628;22.684;2022-09-02T07:07:24;95115.63;;;18.75;100.00
11184;BME280;5648;43.628;22.684;2022-09-02T07:09:50;95119.94;;;18.81;100.00
11184;BME280;5648;43.628;22.684;2022-09-02T07:12:16;95122.53;;;18.71;100.00
11184;BME280;5648;43.628;22.684;2022-09-02T07:14:44;95120.91;;;18.64;100.00
11184;BME280;5648;43.628;22.684;2022-09-02T07:17:11;95127.16;;;18.75;100.00
11184;BME280;5648;43.628;22.684;2022-09-02T07:19:42;95124.06;;;18.61;100.00
11184;BME280;5648;43.628;22.684;2022-09-02T07:22:08;95127.88;;;18.65;100.00
11184;BME280;5648;43.628;22.684;2022-09-02T07:24:35;95133.03;;;18.77;100.00
11184;BME280;5648;43.628;22.684;2022-09-02T07:27:01;95128.97;;;18.69;100.00
11184;BME280;5648;43.628;22.684;2022-09-02T07:29:27;95127.06;;;18.65;100.00
11184;BME280;5648;43.628;22.684;2022-09-02T07:31:53;95127.88;;;18.65;100.00
11184;BME280;5648;43.628;22.684;2022-09-02T07:34:19;95122.53;;;18.71;100.00
11184;BME280;5648;43.628;22.684;2022-09-02T07:36:45;95132.19;;;18.72;100.00
11184;BME280;5648;43.628;22.684;2022-09-02T07:39:12;95127.06;;;18.65;100.00
11184;BME280;5648;43.628;22.684;2022-09-02T07:41:39;95121.72;;;18.65;100.00
11184;BME280;5648;43.628;22.684;2022-09-02T07:44:06;95126.81;;;18.66;100.00
11184;BME280;5648;43.628;22.684;2022-09-02T07:46:32;95129.44;;;18.61;100.00
11184;BME280;5648;43.628;22.684;2022-09-02T07:48:59;95126.25;;;18.64;100.00
11184;BME280;5648;43.628;22.684;2022-09-02T07:51:25;95127.66;;;18.72;100.00
11184;BME280;5648;43.628;22.684;2022-09-02T07:53:51;95128.75;;;18.76;100.00
11184;BME280;5648;43.628;22.684;2022-09-02T07:56:17;95138.94;;;18.79;100.00
11184;BME280;5648;43.628;22.684;2022-09-02T07:58:45;95131.75;;;18.85;100.00
11184;BME280;5648;43.628;22.684;2022-09-02T08:01:11;95143.78;;;18.82;100.00
11184;BME280;5648;43.628;22.684;2022-09-02T08:03:39;95139.06;;;18.62;100.00
11184;BME280;5648;43.628;22.684;2022-09-02T08:06:05;95138.03;;;18.63;100.00
11184;BME280;5648;43.628;22.684;2022-09-02T08:08:31;95147.03;;;18.57;100.00
11184;BME280;5648;43.628;22.684;2022-09-02T08:10:57;95142.47;;;18.53;100.00
11184;BME280;5648;43.628;22.684;2022-09-02T08:13:23;95151.31;;;18.53;100.00
11184;BME280;5648;43.628;22.684;2022-09-02T08:15:50;95149.69;;;18.52;100.00
11184;BME280;5648;43.628;22.684;2022-09-02T08:18:15;95144.19;;;18.32;100.00
11184;BME280;5648;43.628;22.684;2022-09-02T08:20:41;95151.72;;;18.40;100.00
11184;BME280;5648;43.628;22.684;2022-09-02T08:23:06;95153.44;;;18.19;100.00
11184;BME280;5648;43.628;22.684;2022-09-02T08:25:33;95153.47;;;18.24;100.00
11184;BME280;5648;43.628;22.684;2022-09-02T08:27:59;95143.06;;;18.28;100.00
11184;BME280;5648;43.628;22.684;2022-09-02T08:30:24;95147.50;;;18.44;100.00
11184;BME280;5648;43.628;22.684;2022-09-02T08:32:50;95148.78;;;18.42;100.00
11184;BME280;5648;43.628;22.684;2022-09-02T08:35:16;95147.56;;;18.54;100.00
11184;BME280;5648;43.628;22.684;2022-09-02T08:37:42;95154.03;;;18.58;100.00
11184;BME280;5648;43.628;22.684;2022-09-02T08:40:14;95152.56;;;18.73;100.00
11184;BME280;5648;43.628;22.684;2022-09-02T08:42:46;95147.25;;;18.78;100.00
11184;BME280;5648;43.628;22.684;2022-09-02T08:45:23;95152.69;;;18.88;100.00
11184;BME280;5648;43.628;22.684;2022-09-02T08:48:15;95158.84;;;18.88;100.00
11184;BME280;5648;43.628;22.684;2022-09-02T08:50:45;95148.13;;;18.88;100.00
11184;BME280;5648;43.628;22.684;2022-09-02T08:55:57;95158.41;;;18.64;100.00
11184;BME280;5648;43.628;22.684;2022-09-02T08:58:32;95156.25;;;18.66;100.00
11184;BME280;5648;43.628;22.684;2022-09-02T09:07:16;95151.06;;;18.87;100.00
11184;BME280;5648;43.628;22.684;2022-09-02T09:17:37;95149.66;;;19.26;100.00
11184;BME280;5648;43.628;22.684;2022-09-02T09:20:16;95130.38;;;19.24;100.00
11184;BME280;5648;43.628;22.684;2022-09-02T09:22:43;95140.81;;;19.26;100.00
11184;BME280;5648;43.628;22.684;2022-09-02T09:25:14;95135.25;;;19.33;100.00
11184;BME280;5648;43.628;22.684;2022-09-02T09:27:41;95133.69;;;19.52;100.00
11184;BME280;5648;43.628;22.684;2022-09-02T09:30:08;95140.44;;;19.54;100.00
11184;BME280;5648;43.628;22.684;2022-09-02T09:32:44;95141.25;;;19.55;100.00
11184;BME280;5648;43.628;22.684;2022-09-02T09:35:12;95138.00;;;19.53;100.00
11184;BME280;5648;43.628;22.684;2022-09-02T09:40:27;95145.13;;;19.27;100.00
11184;BME280;5648;43.628;22.684;2022-09-02T09:45:33;95142.41;;;19.22;100.00
11184;BME280;5648;43.628;22.684;2022-09-02T09:50:33;95134.31;;;19.12;100.00
11184;BME280;5648;43.628;22.684;2022-09-02T09:53:18;95135.97;;;19.23;100.00
11184;BME280;5648;43.628;22.684;2022-09-02T09:58:46;95139.94;;;19.10;100.00
11184;BME280;5648;43.628;22.684;2022-09-02T10:01:23;95142.88;;;19.09;100.00
11184;BME280;5648;43.628;22.684;2022-09-02T10:04:10;95135.03;;;18.97;100.00
11184;BME280;5648;43.628;22.684;2022-09-02T10:06:42;95143.81;;;18.55;100.00
11184;BME280;5648;43.628;22.684;2022-09-02T10:11:56;95146.47;;;18.50;100.00
11184;BME280;5648;43.628;22.684;2022-09-02T10:14:22;95153.97;;;18.53;100.00
11184;BME280;5648;43.628;22.684;2022-09-02T10:19:50;95147.00;;;18.47;100.00
11184;BME280;5648;43.628;22.684;2022-09-02T10:25:20;95148.09;;;18.51;100.00
11184;BME280;5648;43.628;22.684;2022-09-02T10:30:31;95139.53;;;18.54;100.00
11184;BME280;5648;43.628;22.684;2022-09-02T10:33:26;95135.94;;;18.38;100.00
11184;BME280;5648;43.628;22.684;2022-09-02T10:38:53;95142.06;;;18.34;100.00
11184;BME280;5648;43.628;22.684;2022-09-02T10:41:41;95143.75;;;18.45;100.00
11184;BME280;5648;43.628;22.684;2022-09-02T10:46:57;95144.66;;;18.29;100.00
11184;BME280;5648;43.628;22.684;2022-09-02T11:00:15;95166.13;;;17.80;100.00
11184;BME280;5648;43.628;22.684;2022-09-02T11:03:12;95162.53;;;17.91;100.00
11184;BME280;5648;43.628;22.684;2022-09-02T11:05:47;95163.06;;;17.93;100.00
11184;BME280;5648;43.628;22.684;2022-09-02T11:17:18;95169.91;;;17.84;100.00
11184;BME280;5648;43.628;22.684;2022-09-02T11:19:54;95159.78;;;17.86;100.00
11184;BME280;5648;43.628;22.684;2022-09-02T11:25:27;95167.78;;;17.86;100.00
11184;BME280;5648;43.628;22.684;2022-09-02T11:28:18;95170.53;;;17.91;100.00
11184;BME280;5648;43.628;22.684;2022-09-02T11:30:52;95173.78;;;17.71;100.00
11184;BME280;5648;43.628;22.684;2022-09-02T11:33:27;95166.81;;;17.92;100.00
11184;BME280;5648;43.628;22.684;2022-09-02T11:35:53;95168.41;;;17.93;100.00
11184;BME280;5648;43.628;22.684;2022-09-02T11:44:29;95173.72;;;17.88;100.00
11184;BME280;5648;43.628;22.684;2022-09-02T11:55:21;95165.06;;;17.81;100.00
11184;BME280;5648;43.628;22.684;2022-09-02T11:57:56;95163.88;;;17.94;100.00
11184;BME280;5648;43.628;22.684;2022-09-02T12:00:27;95170.53;;;17.91;100.00
11184;BME280;5648;43.628;22.684;2022-09-02T12:03:00;95161.84;;;17.79;100.00
11184;BME280;5648;43.628;22.684;2022-09-02T12:08:05;95160.59;;;17.65;100.00
11184;BME280;5648;43.628;22.684;2022-09-02T12:13:07;95175.75;;;17.37;100.00
11184;BME280;5648;43.628;22.684;2022-09-02T12:15:33;95171.56;;;17.25;100.00
11184;BME280;5648;43.628;22.684;2022-09-02T12:18:10;95167.53;;;17.44;100.00
11184;BME280;5648;43.628;22.684;2022-09-02T12:23:07;95183.47;;;17.34;100.00
11184;BME280;5648;43.628;22.684;2022-09-02T12:25:40;95176.47;;;17.11;100.00
11184;BME280;5648;43.628;22.684;2022-09-02T12:28:20;95169.81;;;17.13;100.00
11184;BME280;5648;43.628;22.684;2022-09-02T12:33:41;95173.53;;;17.12;100.00
11184;BME280;5648;43.628;22.684;2022-09-02T12:36:55;95168.41;;;17.06;100.00
11184;BME280;5648;43.628;22.684;2022-09-02T12:44:43;95184.59;;;16.82;100.00
11184;BME280;5648;43.628;22.684;2022-09-02T12:50:02;95177.66;;;16.81;100.00
11184;BME280;5648;43.628;22.684;2022-09-02T12:55:29;95174.16;;;16.81;100.00
11184;BME280;5648;43.628;22.684;2022-09-02T12:58:10;95175.88;;;16.70;100.00
11184;BME280;5648;43.628;22.684;2022-09-02T13:17:47;95188.53;;;16.46;100.00
11184;BME280;5648;43.628;22.684;2022-09-02T13:31:28;95190.16;;;16.02;100.00
11184;BME280;5648;43.628;22.684;2022-09-02T13:34:11;95194.69;;;16.01;100.00
11184;BME280;5648;43.628;22.684;2022-09-02T13:36:45;95195.66;;;15.95;100.00
11184;BME280;5648;43.628;22.684;2022-09-02T13:39:22;95192.25;;;16.00;100.00
11184;BME280;5648;43.628;22.684;2022-09-02T13:41:48;95193.88;;;16.01;100.00
11184;BME280;5648;43.628;22.684;2022-09-02T13:44:22;95188.53;;;16.01;100.00
11184;BME280;5648;43.628;22.684;2022-09-02T13:47:01;95198.34;;;15.84;100.00
11184;BME280;5648;43.628;22.684;2022-09-02T13:49:39;95196.38;;;15.91;100.00
11184;BME280;5648;43.628;22.684;2022-09-02T13:52:11;95200.28;;;15.88;100.00
11184;BME280;5648;43.628;22.684;2022-09-02T13:54:43;95204.25;;;15.86;100.00
11184;BME280;5648;43.628;22.684;2022-09-02T13:57:12;95205.31;;;15.85;100.00
11184;BME280;5648;43.628;22.684;2022-09-02T13:59:50;95208.56;;;15.75;100.00
11184;BME280;5648;43.628;22.684;2022-09-02T14:02:30;95203.97;;;15.70;100.00
11184;BME280;5648;43.628;22.684;2022-09-02T14:05:00;95207.19;;;15.72;100.00
11184;BME280;5648;43.628;22.684;2022-09-02T14:07:40;95213.34;;;15.73;100.00
11184;BME280;5648;43.628;22.684;2022-09-02T14:10:09;95211.63;;;15.67;100.00
11184;BME280;5648;43.628;22.684;2022-09-02T14:12:37;95202.09;;;15.71;100.00
11184;BME280;5648;43.628;22.684;2022-09-02T14:15:06;95206.50;;;15.77;100.00
11184;BME280;5648;43.628;22.684;2022-09-02T14:17:32;95202.66;;;15.73;100.00
11184;BME280;5648;43.628;22.684;2022-09-02T14:20:20;95204.53;;;15.72;100.00
11184;BME280;5648;43.628;22.684;2022-09-02T14:22:57;95207.34;;;15.66;100.00
11184;BME280;5648;43.628;22.684;2022-09-02T14:25:24;95205.38;;;15.61;100.00
11184;BME280;5648;43.628;22.684;2022-09-02T14:27:55;95208.72;;;15.57;100.00
11184;BME280;5648;43.628;22.684;2022-09-02T14:30:36;95215.22;;;15.61;100.00
11184;BME280;5648;43.628;22.684;2022-09-02T14:36:01;95216.16;;;15.43;100.00
11184;BME280;5648;43.628;22.684;2022-09-02T14:38:30;95217.91;;;15.37;100.00
11184;BME280;5648;43.628;22.684;2022-09-02T14:40:59;95218.72;;;15.38;100.00
11184;BME280;5648;43.628;22.684;2022-09-02T14:43:25;95226.72;;;15.38;100.00
11184;BME280;5648;43.628;22.684;2022-09-02T14:46:03;95218.25;;;15.29;100.00
11184;BME280;5648;43.628;22.684;2022-09-02T14:48:35;95222.31;;;15.32;100.00
11184;BME280;5648;43.628;22.684;2022-09-02T14:51:05;95223.59;;;15.41;100.00
11184;BME280;5648;43.628;22.684;2022-09-02T14:53:32;95226.59;;;15.44;100.00
11184;BME280;5648;43.628;22.684;2022-09-02T14:55:58;95223.72;;;15.34;100.00
11184;BME280;5648;43.628;22.684;2022-09-02T14:58:26;95223.94;;;15.33;100.00
11184;BME280;5648;43.628;22.684;2022-09-02T15:00:57;95238.50;;;15.54;100.00
11184;BME280;5648;43.628;22.684;2022-09-02T15:03:23;95235.94;;;15.47;100.00
11184;BME280;5648;43.628;22.684;2022-09-02T15:05:49;95241.41;;;15.40;100.00
11184;BME280;5648;43.628;22.684;2022-09-02T15:08:15;95240.53;;;15.23;100.00
11184;BME280;5648;43.628;22.684;2022-09-02T15:10:41;95236.81;;;15.12;100.00
11184;BME280;5648;43.628;22.684;2022-09-02T15:13:10;95251.16;;;15.23;100.00
11184;BME280;5648;43.628;22.684;2022-09-02T15:15:38;95248.03;;;15.14;100.00